TFM - Tactical Decision Aid
ID: Runway Winds: CIG/VIS Threshold:

KCUB - Columbia/Downtown Ar, SC, US

Updated at: 0640 UTC 18 Sep 2021
Latest TAF at: 0533 UTC 18 Sep 2021

TAF Board

Time0553Z 18/07Z 18/08Z 18/09Z 18/10Z 18/11Z 18/12Z 18/13Z 18/14Z 18/15Z 18/16Z 18/17Z 18/18Z 18/19Z>>
Type OBS PRVL PRVL
  [TEMP]  
PRVL
  [TEMP]  
PRVL
  [TEMP]  
PRVL PRVL PRVL PRVL PRVL PRVL PRVL PRVL PRVL
VIS 3 3 3
  [1]  
3
  [1]  
3
  [1]  
3 3 >6 >6 >6 >6 >6 >6 >6
CIG 90 -- --
  [--]  
--
  [--]  
--
  [--]  
-- -- -- -- -- -- -- 50 50
Cover BKN SCT SCT
  [SCT]  
SCT
  [SCT]  
SCT
  [SCT]  
SCT SCT SCT SCT SCT SCT SCT BKN BKN
FltCat MVFR MVFR MVFR
  [IFR]  
MVFR
  [IFR]  
MVFR
  [IFR]  
MVFR MVFR VFR VFR VFR VFR VFR VFR VFR
WX BR BR BR
  [BR]  
BR
  [BR]  
BR
  [BR]  
BR BR -- -- -- -- -- -- --
WDir VRB VRB VRB
[VRB]
VRB
[VRB]
VRB
[VRB]
VRB VRB VRB VRB VRB VRB VRB 70 70
WSpd 0 0 0
  [0]  
0
  [0]  
0
  [0]  
0 0 3 3 3 3 3 4 4
WGst -- -- --
  [--]  
--
  [--]  
--
  [--]  
-- -- -- -- -- -- -- -- --

TDA Impact Legend

  None Marginal Slight Moderate High
Visibility (sm) >5 3≤X≤5 2≤X<3 1≤X<2 <1
Ceiling (100 ft) >30 10≤X≤30 8≤X<10 5≤X<8 <5
Wind Speed (kt) <15 15≤X<25 25≤X<30 ≥30
Wind Gust (kt) <15 15≤X<25 25≤X<35 ≥35
Weather No Wx Reported VCTS -TS,-FZRA TS,FZRA +TS,+FZRA
TAF
KCUB 180533Z 1806/1906 00000KT 3SM BR SCT080
  TEMPO 1808/1811 1SM BR
  FM181300 VRB03KT P6SM SCT025
  FM181800 07004KT P6SM BKN050


METAR
KCUB 180553Z AUTO 00000KT 3SM BR BKN090 23/22 A3010 RMK AO2 SLP191 T02280222 10244 20228 58006
KCUB 180542Z AUTO 00000KT 3SM BR BKN090 23/22 A3011 RMK AO2 T02280222
KCUB 180532Z AUTO 00000KT 2 1/2SM BR BKN090 23/22 A3011 RMK AO2 T02280222
KCUB 180453Z AUTO 00000KT 3SM BR FEW080 23/22 A3011 RMK AO2 SLP193 T02280222 403110217
KCUB 180353Z AUTO 00000KT 4SM BR CLR 23/22 A3011 RMK AO2 SLP194 T02330222

Radar Display
Forecast Discussion